首页
METAR-TAF:

METAR-TAF

机场 :

Danbury Municipal Airport

丹伯里, 康乃狄克州, 美国

纬度: 41-22-18N, 经度: 073-29-04W, 海拔: 139米

当前天气观测

该预报发布于46分钟前的11:53 UTC
风速10节,风向西转西北,有时为23节阵风,在西北转西北之间变化
温度 -8°C
湿度 44%
气压 1020 hPa
能見度: 16.1公里
天空无云

METAR: KDXR 241153Z 30010G23KT 260V330 10SM CLR M08/M18 A3013 RMK AO2 SLP207 T10781183 11061 21078 53009

时间: 07:39 (12:39 UTC)


TAF: 丢失

超过4000个机场的气象观测和天气预报(METAR&TAF报告)。

可查询的气象台以黄色和红色小点在地图上表示。

将鼠标移到小点上方,可查看气象台名称。

然后点击查看天气观测和预报。

如需切换地图:点击带黑十字的绿色按钮放大地图;点击带横线的绿色按钮缩小地图;或者点击绿色箭头查看邻近地区的地图。


METAR-TAF: